Time;durP1;ratioP1;P1;durP2;ratioP2;P2;SDS_P1;SDS_P2;PMS_P1;PMS_P2;Temp;Humidity;BMP_temperature;BMP_pressure;BME280_temperature;BME280_humidity;BME280_pressure;Samples;Min_cycle;Max_cycle;Signal;HPM_P1;HPM_P2
2023/03/18 00:00:21;;;;;;;11.60;6.53;;;10.30;99.90;;;;;;5001915;28;20039;-78
2023/03/18 00:02:47;;;;;;;11.93;6.38;;;10.30;99.90;;;;;;5001498;28;20030;-78
2023/03/18 00:05:14;;;;;;;9.73;6.22;;;10.20;99.90;;;;;;5002751;28;20452;-78
2023/03/18 00:07:41;;;;;;;12.18;7.68;;;10.30;99.90;;;;;;5003871;28;20030;-78
2023/03/18 00:10:09;;;;;;;11.40;6.05;;;10.30;99.90;;;;;;5002048;28;20045;-77
2023/03/18 00:12:37;;;;;;;14.85;6.97;;;10.30;99.90;;;;;;4998325;28;20045;-78
2023/03/18 00:15:06;;;;;;;15.68;7.32;;;10.20;99.90;;;;;;5004320;28;20030;-77
2023/03/18 00:17:33;;;;;;;12.10;7.07;;;10.20;99.90;;;;;;5001309;28;20030;-78
2023/03/18 00:20:04;;;;;;;11.65;7.10;;;10.20;99.90;;;;;;5001390;28;20574;-78
2023/03/18 00:22:36;;;;;;;15.80;6.32;;;10.10;1.00;;;;;;5001244;28;20043;-79
2023/03/18 00:25:04;;;;;;;11.70;6.57;;;10.10;1.00;;;;;;4994740;28;20036;-78
2023/03/18 00:27:30;;;;;;;11.82;6.68;;;10.00;1.00;;;;;;5000290;28;20046;-78
2023/03/18 00:29:57;;;;;;;10.50;6.65;;;10.00;1.00;;;;;;5008875;28;20060;-78
2023/03/18 00:32:27;;;;;;;12.60;6.90;;;9.90;1.00;;;;;;5005580;28;20038;-78
2023/03/18 00:34:55;;;;;;;13.40;6.93;;;9.90;1.00;;;;;;4981557;28;20047;-79
2023/03/18 00:37:29;;;;;;;11.23;6.15;;;9.90;1.00;;;;;;5001477;28;20395;-78
2023/03/18 00:39:57;;;;;;;10.65;6.70;;;9.80;1.00;;;;;;5005037;28;20092;-78
2023/03/18 00:42:25;;;;;;;11.80;6.47;;;9.80;1.00;;;;;;4999441;28;20042;-85
2023/03/18 00:44:51;;;;;;;12.50;6.00;;;9.80;1.00;;;;;;5002808;28;20042;-78
2023/03/18 00:47:20;;;;;;;11.50;4.68;;;9.80;1.00;;;;;;5002249;28;20030;-78
2023/03/18 00:49:47;;;;;;;7.75;4.68;;;9.80;1.00;;;;;;5002417;28;20061;-78
2023/03/18 00:52:13;;;;;;;12.55;6.88;;;9.90;1.00;;;;;;5004839;28;20025;-78
2023/03/18 00:54:39;;;;;;;9.27;5.10;;;9.90;1.00;;;;;;5002464;28;20045;-79
2023/03/18 00:57:05;;;;;;;8.00;4.80;;;9.90;1.00;;;;;;5000718;28;20047;-78
2023/03/18 00:59:32;;;;;;;10.98;4.90;;;9.90;1.00;;;;;;4999207;28;20387;-78
2023/03/18 01:01:58;;;;;;;10.18;4.90;;;9.90;1.00;;;;;;5007060;28;20046;-78
2023/03/18 01:04:24;;;;;;;12.30;5.28;;;9.90;1.00;;;;;;4983852;28;20556;-79
2023/03/18 01:06:50;;;;;;;8.75;4.38;;;9.90;1.00;;;;;;4987104;28;20052;-78
2023/03/18 01:09:16;;;;;;;11.90;4.82;;;9.90;1.00;;;;;;5001963;28;20049;-78
2023/03/18 01:11:43;;;;;;;8.88;5.07;;;9.90;1.00;;;;;;5002276;28;20129;-80
2023/03/18 01:14:09;;;;;;;10.35;6.57;;;9.90;1.00;;;;;;5000828;28;20026;-78
2023/03/18 01:16:36;;;;;;;9.00;4.68;;;10.00;1.00;;;;;;4998760;28;20054;-78
2023/03/18 01:19:03;;;;;;;8.07;5.15;;;10.00;1.00;;;;;;4987099;28;20110;-78
2023/03/18 01:21:29;;;;;;;8.25;5.05;;;10.00;1.00;;;;;;5000975;28;20034;-78
2023/03/18 01:23:59;;;;;;;8.32;5.40;;;10.00;1.00;;;;;;4997404;28;20037;-78
2023/03/18 01:26:26;;;;;;;7.95;5.28;;;10.00;99.90;;;;;;4986992;28;20046;-78
2023/03/18 01:28:55;;;;;;;8.52;5.32;;;10.10;99.90;;;;;;4995667;28;20065;-78
2023/03/18 01:31:24;;;;;;;8.65;6.15;;;10.10;99.90;;;;;;4997484;28;20050;-78
2023/03/18 01:33:51;;;;;;;13.00;5.47;;;10.20;99.90;;;;;;4999532;28;20053;-78
2023/03/18 01:36:17;;;;;;;13.27;5.93;;;10.20;99.90;;;;;;5002266;28;20033;-78
2023/03/18 01:38:55;;;;;;;11.35;6.18;;;10.20;99.90;;;;;;4998288;28;20115;-78
2023/03/18 01:41:21;;;;;;;8.55;5.10;;;10.30;99.90;;;;;;5003814;28;20041;-78
2023/03/18 01:43:47;;;;;;;10.05;6.00;;;10.30;99.90;;;;;;5000904;28;20038;-78
2023/03/18 01:46:34;;;;;;;8.10;4.82;;;10.20;99.90;;;;;;5002229;28;20475;-78
2023/03/18 01:49:04;;;;;;;8.05;5.47;;;10.20;99.90;;;;;;5003506;28;20060;-78
2023/03/18 01:51:31;;;;;;;13.32;5.70;;;10.20;99.90;;;;;;5004299;28;20177;-79
2023/03/18 01:54:02;;;;;;;9.65;5.10;;;10.20;99.90;;;;;;4982579;28;20041;-79
2023/03/18 01:56:28;;;;;;;6.78;4.50;;;10.10;99.90;;;;;;4995110;28;20042;-78
2023/03/18 01:58:58;;;;;;;7.72;4.70;;;10.10;99.90;;;;;;5003883;28;20041;-78
2023/03/18 02:01:33;;;;;;;8.32;5.30;;;10.10;99.90;;;;;;4998754;28;20438;-79
2023/03/18 02:04:05;;;;;;;8.63;4.57;;;10.10;1.00;;;;;;4997519;28;20373;-78
2023/03/18 02:06:32;;;;;;;11.27;4.93;;;10.10;1.00;;;;;;5020683;28;20069;-79
2023/03/18 02:09:01;;;;;;;8.02;4.72;;;10.00;1.00;;;;;;5022593;28;20490;-79
2023/03/18 02:11:37;;;;;;;9.25;4.38;;;10.00;1.00;;;;;;5017623;28;20395;-78
2023/03/18 02:14:05;;;;;;;9.13;4.70;;;10.00;1.00;;;;;;5023387;28;20042;-78
2023/03/18 02:16:51;;;;;;;8.50;3.88;;;10.00;1.00;;;;;;5007857;28;20057;-81
2023/03/18 02:19:43;;;;;;;9.13;4.95;;;9.90;1.00;;;;;;5000331;28;20046;-78
2023/03/18 02:22:26;;;;;;;6.00;4.15;;;9.90;1.00;;;;;;5015317;28;20487;-78
2023/03/18 02:25:15;;;;;;;8.95;4.65;;;9.90;1.00;;;;;;5010384;28;20363;-78
2023/03/18 02:27:44;;;;;;;7.95;4.80;;;9.80;1.00;;;;;;5001692;28;20403;-78
2023/03/18 02:30:22;;;;;;;7.18;4.88;;;9.80;1.00;;;;;;4990183;28;20400;-78
2023/03/18 02:32:53;;;;;;;7.82;4.30;;;9.80;1.00;;;;;;5002065;28;20479;-78
2023/03/18 02:35:19;;;;;;;5.93;3.55;;;9.80;1.00;;;;;;5007538;28;20034;-78
2023/03/18 02:37:46;;;;;;;9.35;4.93;;;9.80;1.00;;;;;;5018269;28;20034;-79
2023/03/18 02:40:21;;;;;;;5.88;4.38;;;9.70;1.00;;;;;;5003421;28;20064;-78
2023/03/18 02:42:47;;;;;;;11.68;4.88;;;9.70;1.00;;;;;;5007874;28;20053;-79
2023/03/18 02:45:34;;;;;;;9.68;5.25;;;9.70;1.00;;;;;;5009833;28;20030;-78
2023/03/18 02:48:12;;;;;;;7.05;4.90;;;9.80;1.00;;;;;;5020647;28;20042;-78
2023/03/18 02:50:38;;;;;;;6.68;4.22;;;9.90;1.00;;;;;;5006371;28;20053;-79
2023/03/18 02:53:05;;;;;;;7.90;4.68;;;9.90;1.00;;;;;;5008738;28;20406;-78
2023/03/18 02:55:31;;;;;;;14.88;5.75;;;10.00;1.00;;;;;;5008104;28;20467;-78
2023/03/18 02:57:57;;;;;;;8.30;5.07;;;9.90;1.00;;;;;;5007683;28;20035;-79
2023/03/18 03:00:23;;;;;;;10.40;4.80;;;9.90;1.00;;;;;;5000822;28;20480;-78
2023/03/18 03:02:50;;;;;;;9.70;5.60;;;9.90;1.00;;;;;;5003268;28;20042;-78
2023/03/18 03:05:16;;;;;;;7.80;4.82;;;9.90;1.00;;;;;;5007742;28;20030;-78
2023/03/18 03:07:42;;;;;;;9.05;4.82;;;9.80;1.00;;;;;;4999904;28;20041;-79
2023/03/18 03:10:10;;;;;;;9.65;5.18;;;9.80;1.00;;;;;;5003819;28;20057;-78
2023/03/18 03:12:39;;;;;;;9.30;5.10;;;9.80;1.00;;;;;;5027548;28;20042;-78
2023/03/18 03:15:08;;;;;;;8.05;4.63;;;9.80;1.00;;;;;;5005316;28;20047;-78
2023/03/18 03:17:38;;;;;;;7.95;4.95;;;9.80;1.00;;;;;;5005727;28;20037;-79
2023/03/18 03:20:05;;;;;;;7.82;4.95;;;9.80;1.00;;;;;;4999366;28;20038;-79
2023/03/18 03:22:33;;;;;;;11.65;5.18;;;9.80;1.00;;;;;;5003051;28;20356;-78
2023/03/18 03:25:00;;;;;;;7.68;4.88;;;9.90;1.00;;;;;;5005846;28;20050;-80
2023/03/18 03:27:27;;;;;;;12.35;5.57;;;9.90;1.00;;;;;;5005715;28;20405;-79
2023/03/18 03:29:54;;;;;;;9.65;4.55;;;10.00;99.90;;;;;;5004070;28;20046;-78
2023/03/18 03:32:21;;;;;;;8.27;5.05;;;10.00;99.90;;;;;;5005123;28;20042;-78
2023/03/18 03:34:49;;;;;;;9.68;5.38;;;10.10;99.90;;;;;;4987463;28;20061;-78
2023/03/18 03:37:16;;;;;;;7.93;4.80;;;10.10;99.90;;;;;;5002046;28;20050;-78
2023/03/18 03:39:43;;;;;;;10.95;5.65;;;10.10;99.90;;;;;;5002465;28;20038;-79
2023/03/18 03:42:10;;;;;;;9.38;4.88;;;10.10;99.90;;;;;;5003469;28;20041;-78
2023/03/18 03:44:36;;;;;;;8.65;4.70;;;10.00;99.90;;;;;;4999936;28;20031;-85
2023/03/18 03:47:03;;;;;;;10.35;4.22;;;9.90;99.90;;;;;;5002675;28;20057;-78
2023/03/18 03:49:29;;;;;;;6.75;4.03;;;10.00;99.90;;;;;;5005445;28;20053;-78
2023/03/18 03:51:57;;;;;;;9.07;5.07;;;10.10;99.90;;;;;;4988379;28;20474;-78
2023/03/18 03:54:24;;;;;;;7.35;4.40;;;10.00;99.90;;;;;;4984776;28;20042;-78
2023/03/18 03:56:52;;;;;;;8.82;4.35;;;10.10;99.90;;;;;;4986251;28;20505;-80
2023/03/18 03:59:18;;;;;;;9.48;5.05;;;10.00;99.90;;;;;;5000398;28;20053;-78
2023/03/18 04:02:02;;;;;;;7.50;4.10;;;10.00;99.90;;;;;;4998657;28;20042;-78
2023/03/18 04:04:28;;;;;;;8.50;4.53;;;10.10;99.90;;;;;;5004080;28;20042;-78
2023/03/18 04:06:55;;;;;;;8.82;4.47;;;10.10;99.90;;;;;;4983600;28;20386;-79
2023/03/18 04:09:21;;;;;;;10.25;4.47;;;10.30;99.90;;;;;;5000633;28;20058;-77
2023/03/18 04:11:47;;;;;;;7.68;3.80;;;10.20;99.90;;;;;;5005566;28;20037;-77
2023/03/18 04:14:13;;;;;;;13.73;4.63;;;10.30;99.90;;;;;;4984900;28;20060;-77
2023/03/18 04:16:40;;;;;;;8.10;3.97;;;10.30;99.90;;;;;;4985266;28;20049;-77
2023/03/18 04:19:08;;;;;;;7.93;3.65;;;10.30;99.90;;;;;;4999939;28;20046;-77
2023/03/18 04:21:35;;;;;;;6.43;3.60;;;10.30;99.90;;;;;;5000011;28;20047;-77
2023/03/18 04:24:02;;;;;;;5.95;3.70;;;10.30;99.90;;;;;;5003854;28;20049;-77
2023/03/18 04:26:30;;;;;;;7.97;4.43;;;10.30;99.90;;;;;;5003641;28;20426;-78
2023/03/18 04:28:59;;;;;;;7.53;3.90;;;10.20;99.90;;;;;;5014891;28;20049;-77
2023/03/18 04:31:26;;;;;;;5.20;2.85;;;10.30;99.90;;;;;;4999876;28;20046;-77
2023/03/18 04:33:53;;;;;;;10.90;3.85;;;10.20;99.90;;;;;;5001621;28;20042;-77
2023/03/18 04:36:19;;;;;;;8.32;3.75;;;10.20;99.90;;;;;;5004447;28;20039;-77
2023/03/18 04:38:46;;;;;;;5.88;3.35;;;10.10;99.90;;;;;;4989788;28;20053;-79
2023/03/18 04:41:13;;;;;;;8.27;3.88;;;10.10;99.90;;;;;;5003434;28;20046;-77
2023/03/18 04:43:39;;;;;;;6.28;3.60;;;10.10;99.90;;;;;;5018597;28;20045;-77
2023/03/18 04:46:06;;;;;;;6.30;3.80;;;10.10;99.90;;;;;;5000689;28;20050;-77
2023/03/18 04:48:33;;;;;;;6.13;3.28;;;10.10;99.90;;;;;;5008789;28;20398;-78
2023/03/18 04:51:03;;;;;;;8.07;3.15;;;10.00;99.90;;;;;;5001812;28;20390;-77
2023/03/18 04:53:31;;;;;;;6.55;3.83;;;10.00;99.90;;;;;;4999920;28;20042;-77
2023/03/18 04:55:57;;;;;;;7.50;2.90;;;9.90;99.90;;;;;;4998924;28;20042;-77
2023/03/18 04:58:29;;;;;;;8.98;3.80;;;9.90;99.90;;;;;;5016802;28;20045;-79
2023/03/18 05:01:04;;;;;;;6.10;3.55;;;9.80;99.90;;;;;;5008242;28;20054;-77
2023/03/18 05:03:35;;;;;;;6.03;3.75;;;9.70;99.90;;;;;;5020692;28;20399;-78
2023/03/18 05:06:02;;;;;;;5.70;2.85;;;9.60;99.90;;;;;;4989215;28;20038;-84
2023/03/18 05:08:46;;;;;;;5.63;3.30;;;9.60;99.90;;;;;;5001447;28;20480;-77
2023/03/18 05:11:13;;;;;;;9.23;3.22;;;9.50;99.90;;;;;;5004093;28;20045;-77
2023/03/18 05:13:40;;;;;;;6.72;2.92;;;9.60;99.90;;;;;;4997546;28;20468;-78
2023/03/18 05:16:08;;;;;;;6.05;2.80;;;9.60;99.90;;;;;;5002454;28;20042;-77
2023/03/18 05:18:36;;;;;;;7.07;3.53;;;9.50;99.90;;;;;;4999008;28;20274;-77
2023/03/18 05:21:06;;;;;;;4.38;2.55;;;9.50;99.90;;;;;;4998552;28;20402;-78
2023/03/18 05:23:33;;;;;;;7.80;3.30;;;9.50;99.90;;;;;;4999201;28;20038;-77
2023/03/18 05:25:59;;;;;;;8.48;3.97;;;9.60;99.90;;;;;;5006115;28;20038;-77
2023/03/18 05:28:27;;;;;;;7.32;3.75;;;9.60;99.90;;;;;;4998908;28;20050;-77
2023/03/18 05:31:23;;;;;;;7.07;3.55;;;9.60;99.90;;;;;;5024782;28;20493;-77
2023/03/18 05:33:50;;;;;;;8.23;3.97;;;9.60;99.90;;;;;;5016494;28;20497;-77
2023/03/18 05:36:18;;;;;;;8.07;3.90;;;9.60;99.90;;;;;;5020168;28;20046;-78
2023/03/18 05:38:55;;;;;;;7.65;4.13;;;9.60;99.90;;;;;;5015144;28;20057;-77
2023/03/18 05:41:23;;;;;;;9.48;6.18;;;9.70;99.90;;;;;;5000738;28;20049;-77
2023/03/18 05:43:49;;;;;;;15.57;6.78;;;9.70;99.90;;;;;;5002886;28;20042;-77
2023/03/18 05:46:16;;;;;;;15.57;6.53;;;9.70;99.90;;;;;;4994692;28;20042;-78
2023/03/18 05:48:54;;;;;;;13.10;6.03;;;9.70;99.90;;;;;;4999097;28;20391;-78
2023/03/18 05:51:23;;;;;;;8.40;5.03;;;9.70;99.90;;;;;;5021889;28;20394;-76
2023/03/18 05:53:50;;;;;;;9.38;5.75;;;9.70;99.90;;;;;;4996775;28;20045;-79
2023/03/18 05:56:26;;;;;;;11.30;4.47;;;9.80;99.90;;;;;;4995407;28;20046;-77
2023/03/18 05:58:57;;;;;;;9.20;4.82;;;9.70;99.90;;;;;;4996082;28;20069;-77
2023/03/18 06:01:34;;;;;;;7.60;3.60;;;9.70;99.90;;;;;;5015986;28;20050;-78
2023/03/18 06:04:01;;;;;;;8.50;3.03;;;9.70;99.90;;;;;;5003075;28;20045;-78
2023/03/18 06:06:27;;;;;;;6.95;3.33;;;9.80;99.90;;;;;;4999417;28;20044;-78
2023/03/18 06:08:55;;;;;;;6.60;2.67;;;9.80;99.90;;;;;;5000538;28;20047;-78
2023/03/18 06:11:23;;;;;;;7.00;3.00;;;9.90;99.90;;;;;;4992630;28;20042;-78
2023/03/18 06:13:51;;;;;;;6.68;2.95;;;9.90;99.90;;;;;;5004806;28;20050;-78
2023/03/18 06:16:17;;;;;;;5.30;2.85;;;9.90;99.90;;;;;;5001563;28;20042;-78
2023/03/18 06:18:44;;;;;;;6.93;3.78;;;10.00;99.90;;;;;;5000471;28;20046;-78
2023/03/18 06:21:14;;;;;;;6.63;2.97;;;10.00;99.90;;;;;;5000809;28;20049;-78
2023/03/18 06:23:40;;;;;;;5.38;3.38;;;10.00;99.90;;;;;;5001958;28;20049;-77
2023/03/18 06:26:07;;;;;;;7.85;3.50;;;10.00;99.90;;;;;;4999435;28;20042;-77
2023/03/18 06:28:39;;;;;;;6.43;3.17;;;10.10;99.90;;;;;;4996068;28;20046;-77
2023/03/18 06:31:09;;;;;;;6.13;3.23;;;10.10;99.90;;;;;;5002061;28;20042;-78
2023/03/18 06:33:37;;;;;;;6.82;2.72;;;10.20;99.90;;;;;;5002069;28;20753;-79
2023/03/18 06:36:05;;;;;;;6.00;2.75;;;10.30;99.90;;;;;;5018464;28;20049;-79
2023/03/18 06:38:32;;;;;;;5.18;3.13;;;10.40;99.90;;;;;;5010139;28;20395;-78
2023/03/18 06:40:59;;;;;;;5.10;2.50;;;10.40;99.90;;;;;;4999864;28;20383;-79
2023/03/18 06:43:26;;;;;;;6.38;3.00;;;10.50;99.90;;;;;;5005437;28;20050;-79
2023/03/18 06:45:52;;;;;;;4.70;2.42;;;10.60;99.90;;;;;;4993009;28;20039;-78
2023/03/18 06:48:19;;;;;;;5.30;2.38;;;10.60;99.90;;;;;;5004730;28;20030;-78
2023/03/18 06:50:48;;;;;;;5.13;2.60;;;10.60;99.90;;;;;;5003345;28;20050;-84
2023/03/18 06:53:21;;;;;;;6.25;2.40;;;10.70;99.90;;;;;;5000951;28;20038;-78
2023/03/18 06:55:48;;;;;;;5.85;2.38;;;10.90;99.90;;;;;;5001695;28;20039;-79
2023/03/18 06:58:17;;;;;;;5.93;2.35;;;11.10;99.90;;;;;;5007104;28;20050;-79
2023/03/18 07:00:51;;;;;;;4.90;2.15;;;11.20;99.90;;;;;;4999351;28;20055;-80
2023/03/18 07:03:22;;;;;;;;;;;11.30;99.90;;;;;;5006015;28;20046;-79
2023/03/18 07:05:49;;;;;;;7.07;2.17;;;11.40;99.90;;;;;;4999583;28;19917;-78
2023/03/18 07:08:16;;;;;;;5.82;2.33;;;11.60;99.90;;;;;;5001897;28;20042;-78
2023/03/18 07:10:42;;;;;;;3.83;2.00;;;11.90;99.90;;;;;;5000731;28;20039;-77
2023/03/18 07:13:14;;;;;;;6.65;2.47;;;12.20;99.90;;;;;;4995567;28;20494;-78
2023/03/18 07:15:41;;;;;;;6.07;2.67;;;12.10;99.90;;;;;;4998705;28;20053;-78
2023/03/18 07:18:08;;;;;;;3.33;2.15;;;12.10;99.90;;;;;;5007261;28;20038;-76
2023/03/18 07:20:35;;;;;;;6.70;2.22;;;11.90;99.90;;;;;;4994059;28;20035;-75
2023/03/18 07:23:02;;;;;;;4.38;2.05;;;11.70;99.90;;;;;;5000104;28;20043;-77
2023/03/18 07:25:30;;;;;;;5.03;2.85;;;11.80;99.90;;;;;;4996085;28;20030;-79
2023/03/18 07:27:58;;;;;;;4.15;1.95;;;11.90;99.90;;;;;;5005361;28;20050;-78
2023/03/18 07:30:26;;;;;;;5.32;2.28;;;12.40;99.90;;;;;;4999811;28;20119;-78
2023/03/18 07:32:52;;;;;;;3.60;2.17;;;13.10;99.90;;;;;;4979983;28;20037;-78
2023/03/18 07:35:19;;;;;;;5.05;2.78;;;13.70;99.90;;;;;;4993905;28;20053;-79
2023/03/18 07:37:46;;;;;;;9.88;2.65;;;14.20;99.90;;;;;;4998956;28;20042;-79
2023/03/18 07:40:12;;;;;;;3.83;2.22;;;14.40;99.90;;;;;;5002324;28;20041;-79
2023/03/18 07:42:39;;;;;;;5.38;2.15;;;14.70;99.90;;;;;;4996845;28;20460;-79
2023/03/18 07:45:06;;;;;;;4.40;1.60;;;14.80;99.90;;;;;;5002099;28;20037;-79
2023/03/18 07:47:32;;;;;;;3.00;1.73;;;15.10;99.90;;;;;;5001610;28;20029;-79
2023/03/18 07:49:59;;;;;;;5.15;1.95;;;15.50;99.90;;;;;;5004246;28;20026;-79
2023/03/18 07:52:25;;;;;;;4.25;1.70;;;15.60;99.90;;;;;;4997563;28;20488;-79
2023/03/18 07:54:51;;;;;;;7.00;2.33;;;15.50;99.90;;;;;;5002468;28;20467;-79
2023/03/18 07:57:17;;;;;;;4.25;1.55;;;15.70;99.90;;;;;;4997931;28;20033;-79
2023/03/18 07:59:44;;;;;;;5.28;2.00;;;15.70;99.90;;;;;;5006490;28;20109;-78
2023/03/18 08:02:13;;;;;;;4.22;1.40;;;15.70;99.90;;;;;;5001406;28;20429;-79
2023/03/18 08:04:40;;;;;;;6.47;1.77;;;15.40;99.90;;;;;;5004720;28;20043;-79
2023/03/18 08:07:06;;;;;;;9.02;2.05;;;14.90;99.90;;;;;;5006830;28;20045;-79
2023/03/18 08:09:32;;;;;;;5.38;1.90;;;14.50;99.90;;;;;;5000824;28;20023;-79
2023/03/18 08:11:59;;;;;;;5.32;1.90;;;14.40;99.90;;;;;;4995991;28;20364;-78
2023/03/18 08:14:25;;;;;;;2.47;1.52;;;14.30;99.90;;;;;;5003687;28;20034;-79
2023/03/18 08:16:51;;;;;;;4.25;1.27;;;14.30;99.90;;;;;;5003491;28;20034;-81
2023/03/18 08:19:17;;;;;;;3.08;1.52;;;14.40;99.90;;;;;;5005879;28;20034;-79
2023/03/18 08:21:43;;;;;;;6.13;2.85;;;14.50;99.90;;;;;;5004569;28;20049;-78
2023/03/18 08:24:10;;;;;;;4.13;1.27;;;14.90;99.90;;;;;;5005011;28;20467;-79
2023/03/18 08:26:37;;;;;;;4.25;1.15;;;15.50;99.90;;;;;;5006043;28;20030;-80
2023/03/18 08:29:03;;;;;;;4.38;1.50;;;15.60;99.90;;;;;;5002172;28;20050;-79
2023/03/18 08:31:29;;;;;;;2.55;1.67;;;15.70;99.90;;;;;;5003200;28;20045;-79
2023/03/18 08:33:58;;;;;;;3.80;1.40;;;15.90;99.90;;;;;;5008205;28;20383;-80
2023/03/18 08:36:26;;;;;;;4.03;1.75;;;16.10;99.90;;;;;;5011909;28;20034;-79
2023/03/18 08:38:53;;;;;;;3.72;1.02;;;16.40;99.90;;;;;;5004629;28;20030;-79
2023/03/18 08:41:20;;;;;;;2.15;0.75;;;16.60;99.90;;;;;;5009967;28;20050;-78
2023/03/18 08:43:46;;;;;;;2.35;0.85;;;16.50;99.90;;;;;;5016941;28;20040;-78
2023/03/18 08:46:13;;;;;;;3.10;0.90;;;16.30;99.90;;;;;;5003185;28;20383;-79
2023/03/18 08:48:40;;;;;;;4.55;1.38;;;16.10;99.90;;;;;;5002479;28;20030;-79
2023/03/18 08:51:09;;;;;;;4.80;1.25;;;16.20;99.90;;;;;;5001534;28;20041;-78
2023/03/18 08:53:37;;;;;;;3.22;0.82;;;16.20;99.90;;;;;;5002380;28;20045;-77
2023/03/18 08:56:04;;;;;;;5.28;0.98;;;16.20;99.90;;;;;;4981141;28;20030;-78
2023/03/18 08:58:31;;;;;;;4.68;1.10;;;16.40;99.90;;;;;;5005684;28;20387;-78
2023/03/18 09:00:57;;;;;;;4.65;1.00;;;16.60;99.90;;;;;;5000777;28;20513;-78
2023/03/18 09:03:23;;;;;;;2.05;1.10;;;16.80;99.90;;;;;;5002115;28;20055;-78
2023/03/18 09:05:52;;;;;;;2.45;1.10;;;17.00;99.90;;;;;;5001860;28;20042;-78
2023/03/18 09:08:18;;;;;;;4.75;1.33;;;17.20;99.90;;;;;;5004043;28;20045;-78
2023/03/18 09:10:45;;;;;;;4.30;1.80;;;16.70;99.90;;;;;;5001709;28;20041;-77
2023/03/18 09:13:11;;;;;;;4.70;1.70;;;17.00;99.90;;;;;;5001996;28;20038;-76
2023/03/18 09:15:38;;;;;;;3.17;1.15;;;17.30;99.90;;;;;;5007521;28;20038;-78
2023/03/18 09:18:04;;;;;;;4.22;1.30;;;17.30;99.90;;;;;;4983677;28;20038;-78
2023/03/18 09:20:32;;;;;;;3.97;1.40;;;17.30;99.90;;;;;;5001918;28;20049;-78
2023/03/18 09:22:59;;;;;;;3.95;0.70;;;17.20;99.90;;;;;;5003455;28;20463;-78
2023/03/18 09:25:25;;;;;;;3.83;1.23;;;17.60;99.90;;;;;;5003890;28;20033;-77
2023/03/18 09:27:52;;;;;;;3.50;0.90;;;17.70;99.90;;;;;;5002863;28;20052;-78
2023/03/18 09:30:19;;;;;;;3.97;1.40;;;17.90;99.90;;;;;;5000553;28;20045;-78
2023/03/18 09:32:45;;;;;;;2.45;1.00;;;17.90;99.90;;;;;;5000132;28;20041;-78
2023/03/18 09:35:13;;;;;;;2.20;1.13;;;18.20;99.90;;;;;;4996201;28;20041;-78
2023/03/18 09:37:39;;;;;;;3.10;0.82;;;17.90;99.90;;;;;;5001435;28;20033;-80
2023/03/18 09:40:06;;;;;;;1.88;0.90;;;17.30;99.90;;;;;;4997762;28;20057;-79
2023/03/18 09:43:04;;;;;;;3.33;1.00;;;17.00;99.90;;;;;;4999580;28;20041;-79
2023/03/18 09:46:01;;;;;;;2.65;0.93;;;17.10;99.90;;;;;;4966993;28;20046;-78
2023/03/18 09:48:53;;;;;;;2.72;1.20;;;17.50;99.90;;;;;;4997300;28;20038;-79
2023/03/18 09:51:39;;;;;;;3.95;1.63;;;17.70;99.90;;;;;;5002443;28;20113;-77
2023/03/18 09:54:11;;;;;;;2.92;1.08;;;17.80;99.90;;;;;;4995064;28;20038;-78
2023/03/18 09:56:38;;;;;;;1.85;0.90;;;18.10;99.90;;;;;;5001370;28;20030;-78
2023/03/18 09:59:25;;;;;;;2.33;0.95;;;17.90;99.90;;;;;;5000105;28;20034;-77
2023/03/18 10:01:56;;;;;;;5.22;1.13;;;17.70;99.90;;;;;;5006322;28;20042;-78
2023/03/18 10:04:31;;;;;;;4.88;1.20;;;17.80;99.90;;;;;;4995518;28;20464;-78
2023/03/18 10:07:21;;;;;;;2.22;1.17;;;18.10;99.90;;;;;;4989195;28;20030;-78
2023/03/18 10:09:54;;;;;;;3.08;0.80;;;18.20;99.90;;;;;;5000211;28;20042;-77
2023/03/18 10:12:30;;;;;;;3.55;1.17;;;18.20;99.90;;;;;;4997200;28;20034;-79
2023/03/18 10:15:05;;;;;;;3.78;2.00;;;18.10;99.90;;;;;;4998148;28;20039;-78
2023/03/18 10:17:39;;;;;;;3.60;1.10;;;17.90;99.90;;;;;;5000822;28;20506;-79
2023/03/18 10:20:20;;;;;;;2.72;0.90;;;17.20;99.90;;;;;;5001708;28;20038;-78
2023/03/18 10:22:56;;;;;;;;;;;17.40;99.90;;;;;;5002511;28;20387;-77
2023/03/18 10:25:34;;;;;;;5.72;1.65;;;17.70;99.90;;;;;;5010360;28;19913;-78
2023/03/18 10:28:15;;;;;;;4.00;1.25;;;18.00;99.90;;;;;;5004938;28;20517;-77
2023/03/18 10:31:07;;;;;;;3.47;1.70;;;18.10;99.90;;;;;;4989234;28;20045;-77
2023/03/18 10:33:49;;;;;;;3.28;1.23;;;17.70;99.90;;;;;;5006239;28;20041;-78
2023/03/18 10:36:25;;;;;;;9.20;6.88;;;17.90;99.90;;;;;;5006659;28;20039;-79
2023/03/18 10:38:53;;;;;;;2.17;1.27;;;18.00;99.90;;;;;;5003458;28;20031;-78
2023/03/18 10:41:32;;;;;;;4.47;1.40;;;18.10;99.90;;;;;;4989130;28;20300;-77
2023/03/18 10:44:20;;;;;;;6.18;1.27;;;17.70;99.90;;;;;;5006888;28;20050;-76
2023/03/18 10:46:52;;;;;;;2.35;1.20;;;17.80;99.90;;;;;;5005262;28;20113;-75
2023/03/18 10:49:27;;;;;;;2.83;1.15;;;17.70;99.90;;;;;;5002984;28;20026;-78
2023/03/18 10:52:15;;;;;;;3.55;0.93;;;17.50;99.90;;;;;;5006899;28;20041;-78
2023/03/18 10:54:51;;;;;;;4.18;1.08;;;17.60;99.90;;;;;;5006934;28;20026;-78
2023/03/18 10:57:20;;;;;;;2.70;1.20;;;17.80;99.90;;;;;;5005496;28;20477;-78
2023/03/18 10:59:50;;;;;;;4.78;1.23;;;18.10;99.90;;;;;;5004077;28;20053;-78
2023/03/18 11:02:32;;;;;;;2.70;0.82;;;18.50;99.90;;;;;;4986926;28;20042;-79
2023/03/18 11:05:05;;;;;;;2.85;1.17;;;18.40;99.90;;;;;;5003032;28;20034;-79
2023/03/18 11:07:32;;;;;;;4.57;1.30;;;18.20;99.90;;;;;;5004304;28;20038;-79
2023/03/18 11:10:29;;;;;;;3.88;1.02;;;17.90;99.90;;;;;;5007805;28;20038;-79
2023/03/18 11:13:02;;;;;;;2.30;0.80;;;18.10;99.90;;;;;;5004696;28;20046;-80
2023/03/18 11:15:34;;;;;;;4.13;1.10;;;18.30;99.90;;;;;;4999917;28;20034;-80
2023/03/18 11:18:04;;;;;;;1.80;1.00;;;18.60;99.90;;;;;;5006839;28;20033;-79
2023/03/18 11:20:41;;;;;;;3.38;1.20;;;18.80;99.90;;;;;;5002779;28;20041;-78
2023/03/18 11:23:16;;;;;;;3.03;0.93;;;18.70;99.90;;;;;;5003332;28;20049;-79
2023/03/18 11:25:47;;;;;;;3.35;1.10;;;18.80;99.90;;;;;;5004215;28;20031;-78
2023/03/18 11:28:27;;;;;;;4.53;1.00;;;18.90;99.90;;;;;;5000088;28;20360;-78
2023/03/18 11:30:59;;;;;;;3.13;0.80;;;18.70;99.90;;;;;;5002509;28;20050;-78
2023/03/18 11:33:32;;;;;;;4.78;1.45;;;18.60;99.90;;;;;;4998197;28;20046;-78
2023/03/18 11:36:04;;;;;;;4.43;1.58;;;18.40;99.90;;;;;;4998082;28;20034;-77
2023/03/18 11:38:34;;;;;;;1.92;0.80;;;18.50;99.90;;;;;;5000968;28;20037;-77
2023/03/18 11:41:23;;;;;;;3.25;0.82;;;18.50;99.90;;;;;;5003207;28;20034;-78
2023/03/18 11:43:59;;;;;;;5.90;1.20;;;18.60;99.90;;;;;;5000746;28;20038;-78
2023/03/18 11:46:32;;;;;;;2.97;1.00;;;18.60;99.90;;;;;;5002903;28;20042;-79
2023/03/18 11:48:59;;;;;;;2.13;0.70;;;18.70;99.90;;;;;;5007449;28;20053;-79
2023/03/18 11:51:35;;;;;;;3.03;0.80;;;18.80;99.90;;;;;;4985013;28;20073;-78
2023/03/18 11:54:22;;;;;;;6.38;0.77;;;19.00;99.90;;;;;;4996413;28;20399;-78
2023/03/18 11:56:57;;;;;;;3.40;0.90;;;19.00;99.90;;;;;;5000062;28;20031;-78
2023/03/18 11:59:31;;;;;;;2.15;1.20;;;19.00;99.90;;;;;;4999841;28;20391;-79
2023/03/18 12:02:24;;;;;;;4.57;1.17;;;19.20;99.80;;;;;;5002954;28;20042;-79
2023/03/18 12:05:00;;;;;;;2.25;0.98;;;19.20;99.90;;;;;;4999565;28;20031;-79
2023/03/18 12:07:51;;;;;;;3.35;1.10;;;19.30;99.90;;;;;;5002381;28;20034;-78
2023/03/18 12:10:28;;;;;;;3.60;1.02;;;19.40;99.90;;;;;;5006708;28;20041;-79
2023/03/18 12:12:58;;;;;;;3.25;1.05;;;19.50;99.50;;;;;;5008456;28;20034;-78
2023/03/18 12:15:32;;;;;;;2.05;0.80;;;19.30;99.20;;;;;;5000079;28;20029;-78
2023/03/18 12:18:25;;;;;;;5.35;1.30;;;19.30;98.80;;;;;;5001710;28;20029;-79
2023/03/18 12:20:53;;;;;;;2.85;0.57;;;19.20;99.90;;;;;;4999265;28;20026;-79
2023/03/18 12:23:38;;;;;;;2.75;0.70;;;19.30;99.90;;;;;;4995883;28;20038;-79
2023/03/18 12:26:10;;;;;;;9.85;1.40;;;19.40;99.50;;;;;;4995937;28;20038;-78
2023/03/18 12:29:14;;;;;;;1.75;0.85;;;19.50;99.50;;;;;;4997114;28;20057;-80
2023/03/18 12:32:15;;;;;;;4.15;1.02;;;19.30;99.70;;;;;;4999869;28;20050;-78
2023/03/18 12:34:54;;;;;;;2.42;1.13;;;19.20;99.60;;;;;;4974134;28;20503;-78
2023/03/18 12:37:30;;;;;;;2.72;0.80;;;18.80;99.90;;;;;;5001677;28;20038;-80
2023/03/18 12:40:15;;;;;;;4.55;1.60;;;18.90;99.90;;;;;;5005938;28;20041;-80
2023/03/18 12:42:47;;;;;;;2.10;0.70;;;19.00;99.40;;;;;;4998427;28;20471;-79
2023/03/18 12:45:21;;;;;;;1.95;0.60;;;19.20;99.90;;;;;;4997178;28;20057;-81
2023/03/18 12:48:01;;;;;;;4.38;0.70;;;19.20;99.90;;;;;;4995501;28;20042;-78
2023/03/18 12:50:38;;;;;;;2.67;0.75;;;19.20;99.90;;;;;;4998193;28;20256;-78
2023/03/18 12:53:17;;;;;;;4.05;1.13;;;19.40;99.90;;;;;;4998434;28;20394;-78
2023/03/18 12:55:48;;;;;;;2.70;0.85;;;19.60;99.70;;;;;;5000229;28;20414;-78
2023/03/18 12:58:27;;;;;;;2.85;0.82;;;19.60;99.10;;;;;;4983308;28;20046;-79
2023/03/18 13:01:22;;;;;;;2.30;0.50;;;19.50;98.10;;;;;;5000690;28;20057;-78
2023/03/18 13:04:15;;;;;;;3.58;1.30;;;19.50;99.30;;;;;;4992321;28;20041;-80
2023/03/18 13:07:14;;;;;;;1.42;0.60;;;19.70;98.60;;;;;;4984992;28;20042;-81
2023/03/18 13:09:49;;;;;;;1.13;0.60;;;19.70;98.30;;;;;;4989608;28;20057;-81